sensor_id;sensor_type;location;lat;lon;timestamp;temperature;humidity
16635;DHT22;8431;52.458;9.998;2022-09-16T00:01:56;11.10;99.90
16635;DHT22;8431;52.458;9.998;2022-09-16T00:04:23;11.10;99.90
16635;DHT22;8431;52.458;9.998;2022-09-16T00:06:50;11.10;99.90
16635;DHT22;8431;52.458;9.998;2022-09-16T00:09:19;11.10;99.90
16635;DHT22;8431;52.458;9.998;2022-09-16T00:11:46;11.10;99.90
16635;DHT22;8431;52.458;9.998;2022-09-16T00:14:13;11.10;99.90
16635;DHT22;8431;52.458;9.998;2022-09-16T00:16:40;11.10;99.90
16635;DHT22;8431;52.458;9.998;2022-09-16T00:19:27;11.10;99.90
16635;DHT22;8431;52.458;9.998;2022-09-16T00:22:14;11.10;99.90
16635;DHT22;8431;52.458;9.998;2022-09-16T00:25:04;11.10;99.90
16635;DHT22;8431;52.458;9.998;2022-09-16T00:27:51;11.10;99.90
16635;DHT22;8431;52.458;9.998;2022-09-16T00:30:38;11.00;99.90
16635;DHT22;8431;52.458;9.998;2022-09-16T00:33:26;11.00;99.90
16635;DHT22;8431;52.458;9.998;2022-09-16T00:36:15;10.90;99.90
16635;DHT22;8431;52.458;9.998;2022-09-16T00:39:03;10.90;99.90
16635;DHT22;8431;52.458;9.998;2022-09-16T00:41:52;10.90;99.90
16635;DHT22;8431;52.458;9.998;2022-09-16T00:44:54;11.00;99.90
16635;DHT22;8431;52.458;9.998;2022-09-16T00:47:45;11.00;99.90
16635;DHT22;8431;52.458;9.998;2022-09-16T00:50:35;10.90;99.90
16635;DHT22;8431;52.458;9.998;2022-09-16T00:53:27;10.90;99.90
16635;DHT22;8431;52.458;9.998;2022-09-16T00:56:17;11.00;99.90
16635;DHT22;8431;52.458;9.998;2022-09-16T00:58:51;11.00;99.90
16635;DHT22;8431;52.458;9.998;2022-09-16T01:01:20;11.10;99.90
16635;DHT22;8431;52.458;9.998;2022-09-16T01:03:50;11.10;99.90
16635;DHT22;8431;52.458;9.998;2022-09-16T01:06:18;11.20;99.90
16635;DHT22;8431;52.458;9.998;2022-09-16T01:08:48;11.20;99.90
16635;DHT22;8431;52.458;9.998;2022-09-16T01:11:16;11.20;99.90
16635;DHT22;8431;52.458;9.998;2022-09-16T01:13:43;11.10;99.90
16635;DHT22;8431;52.458;9.998;2022-09-16T01:16:19;11.20;99.90
16635;DHT22;8431;52.458;9.998;2022-09-16T01:18:51;11.20;99.90
16635;DHT22;8431;52.458;9.998;2022-09-16T01:21:35;11.20;99.90
16635;DHT22;8431;52.458;9.998;2022-09-16T01:24:23;11.20;99.90
16635;DHT22;8431;52.458;9.998;2022-09-16T01:27:28;11.30;99.90
16635;DHT22;8431;52.458;9.998;2022-09-16T01:30:16;11.40;99.90
16635;DHT22;8431;52.458;9.998;2022-09-16T01:32:59;11.40;99.90
16635;DHT22;8431;52.458;9.998;2022-09-16T01:35:39;11.50;99.90
16635;DHT22;8431;52.458;9.998;2022-09-16T01:38:21;11.50;99.90
16635;DHT22;8431;52.458;9.998;2022-09-16T01:40:55;11.60;99.90
16635;DHT22;8431;52.458;9.998;2022-09-16T01:43:29;11.60;99.90
16635;DHT22;8431;52.458;9.998;2022-09-16T01:46:03;11.60;99.90
16635;DHT22;8431;52.458;9.998;2022-09-16T01:48:36;11.60;99.90
16635;DHT22;8431;52.458;9.998;2022-09-16T01:51:07;11.60;99.90
16635;DHT22;8431;52.458;9.998;2022-09-16T01:53:40;11.60;99.90
16635;DHT22;8431;52.458;9.998;2022-09-16T01:56:13;11.50;99.90
16635;DHT22;8431;52.458;9.998;2022-09-16T01:58:48;11.50;99.90
16635;DHT22;8431;52.458;9.998;2022-09-16T02:01:22;11.50;99.90
16635;DHT22;8431;52.458;9.998;2022-09-16T02:03:57;11.40;99.90
16635;DHT22;8431;52.458;9.998;2022-09-16T02:06:26;11.50;99.90
16635;DHT22;8431;52.458;9.998;2022-09-16T02:08:57;11.50;99.90
16635;DHT22;8431;52.458;9.998;2022-09-16T02:11:25;11.50;99.90
16635;DHT22;8431;52.458;9.998;2022-09-16T02:13:55;11.40;99.90
16635;DHT22;8431;52.458;9.998;2022-09-16T02:16:26;11.40;99.90
16635;DHT22;8431;52.458;9.998;2022-09-16T02:18:57;11.40;99.90
16635;DHT22;8431;52.458;9.998;2022-09-16T02:21:28;11.40;99.90
16635;DHT22;8431;52.458;9.998;2022-09-16T02:23:59;11.40;99.90
16635;DHT22;8431;52.458;9.998;2022-09-16T02:26:31;11.50;99.90
16635;DHT22;8431;52.458;9.998;2022-09-16T02:29:01;11.50;99.90
16635;DHT22;8431;52.458;9.998;2022-09-16T02:31:31;11.60;99.90
16635;DHT22;8431;52.458;9.998;2022-09-16T02:34:03;11.60;99.90
16635;DHT22;8431;52.458;9.998;2022-09-16T02:36:33;11.60;99.90
16635;DHT22;8431;52.458;9.998;2022-09-16T02:39:03;11.60;99.90
16635;DHT22;8431;52.458;9.998;2022-09-16T02:41:33;11.60;99.90
16635;DHT22;8431;52.458;9.998;2022-09-16T02:44:01;11.60;99.90
16635;DHT22;8431;52.458;9.998;2022-09-16T02:46:33;11.60;99.90
16635;DHT22;8431;52.458;9.998;2022-09-16T02:49:10;11.60;99.90
16635;DHT22;8431;52.458;9.998;2022-09-16T02:51:45;11.60;99.90
16635;DHT22;8431;52.458;9.998;2022-09-16T02:54:20;11.60;99.90
16635;DHT22;8431;52.458;9.998;2022-09-16T02:56:47;11.60;99.90
16635;DHT22;8431;52.458;9.998;2022-09-16T02:59:15;11.60;99.90
16635;DHT22;8431;52.458;9.998;2022-09-16T03:01:45;11.60;99.90
16635;DHT22;8431;52.458;9.998;2022-09-16T03:04:15;11.60;99.90
16635;DHT22;8431;52.458;9.998;2022-09-16T03:06:42;11.70;99.90
16635;DHT22;8431;52.458;9.998;2022-09-16T03:09:11;11.70;99.90
16635;DHT22;8431;52.458;9.998;2022-09-16T03:11:48;11.70;99.90
16635;DHT22;8431;52.458;9.998;2022-09-16T03:17:32;11.60;99.90
16635;DHT22;8431;52.458;9.998;2022-09-16T03:20:10;11.60;99.90
16635;DHT22;8431;52.458;9.998;2022-09-16T03:22:46;11.60;99.90
16635;DHT22;8431;52.458;9.998;2022-09-16T03:25:29;11.50;99.90
16635;DHT22;8431;52.458;9.998;2022-09-16T03:28:03;11.50;99.90
16635;DHT22;8431;52.458;9.998;2022-09-16T03:30:38;11.50;99.90
16635;DHT22;8431;52.458;9.998;2022-09-16T03:33:11;11.50;99.90
16635;DHT22;8431;52.458;9.998;2022-09-16T03:35:45;11.50;99.90
16635;DHT22;8431;52.458;9.998;2022-09-16T03:38:13;11.50;99.90
16635;DHT22;8431;52.458;9.998;2022-09-16T03:40:42;11.50;99.90
16635;DHT22;8431;52.458;9.998;2022-09-16T03:43:10;11.60;99.90
16635;DHT22;8431;52.458;9.998;2022-09-16T03:45:39;11.60;99.90
16635;DHT22;8431;52.458;9.998;2022-09-16T03:48:07;11.60;99.90
16635;DHT22;8431;52.458;9.998;2022-09-16T03:50:35;11.60;99.90
16635;DHT22;8431;52.458;9.998;2022-09-16T03:53:04;11.60;99.90
16635;DHT22;8431;52.458;9.998;2022-09-16T03:55:31;11.60;99.90
16635;DHT22;8431;52.458;9.998;2022-09-16T03:57:58;11.60;99.90
16635;DHT22;8431;52.458;9.998;2022-09-16T04:00:25;11.50;99.90
16635;DHT22;8431;52.458;9.998;2022-09-16T04:02:54;11.60;99.90
16635;DHT22;8431;52.458;9.998;2022-09-16T04:05:21;11.50;99.90
16635;DHT22;8431;52.458;9.998;2022-09-16T04:07:48;11.50;99.90
16635;DHT22;8431;52.458;9.998;2022-09-16T04:10:17;11.50;99.90
16635;DHT22;8431;52.458;9.998;2022-09-16T04:12:45;11.50;99.90
16635;DHT22;8431;52.458;9.998;2022-09-16T04:15:12;11.50;99.90
16635;DHT22;8431;52.458;9.998;2022-09-16T04:17:39;11.50;99.90
16635;DHT22;8431;52.458;9.998;2022-09-16T04:20:07;11.50;99.90
16635;DHT22;8431;52.458;9.998;2022-09-16T04:22:34;11.50;99.90
16635;DHT22;8431;52.458;9.998;2022-09-16T04:25:01;11.50;99.90
16635;DHT22;8431;52.458;9.998;2022-09-16T04:27:30;11.50;99.90
16635;DHT22;8431;52.458;9.998;2022-09-16T04:29:57;11.50;99.90
16635;DHT22;8431;52.458;9.998;2022-09-16T04:32:24;11.50;99.90
16635;DHT22;8431;52.458;9.998;2022-09-16T04:34:51;11.50;99.90
16635;DHT22;8431;52.458;9.998;2022-09-16T04:37:20;11.50;99.90
16635;DHT22;8431;52.458;9.998;2022-09-16T04:39:46;11.50;99.90
16635;DHT22;8431;52.458;9.998;2022-09-16T04:42:13;11.50;99.90
16635;DHT22;8431;52.458;9.998;2022-09-16T04:44:42;11.50;99.90
16635;DHT22;8431;52.458;9.998;2022-09-16T04:47:09;11.50;99.90
16635;DHT22;8431;52.458;9.998;2022-09-16T04:49:36;11.50;99.90
16635;DHT22;8431;52.458;9.998;2022-09-16T04:52:03;11.50;99.90
16635;DHT22;8431;52.458;9.998;2022-09-16T04:54:31;11.40;99.90
16635;DHT22;8431;52.458;9.998;2022-09-16T04:56:58;11.40;99.90
16635;DHT22;8431;52.458;9.998;2022-09-16T04:59:26;11.40;99.90
16635;DHT22;8431;52.458;9.998;2022-09-16T05:01:55;11.40;99.90
16635;DHT22;8431;52.458;9.998;2022-09-16T05:04:26;11.40;99.90
16635;DHT22;8431;52.458;9.998;2022-09-16T05:06:53;11.40;99.90
16635;DHT22;8431;52.458;9.998;2022-09-16T05:09:20;11.40;99.90
16635;DHT22;8431;52.458;9.998;2022-09-16T05:11:47;11.50;99.90
16635;DHT22;8431;52.458;9.998;2022-09-16T05:14:16;11.80;99.90
16635;DHT22;8431;52.458;9.998;2022-09-16T05:16:44;12.10;99.90
16635;DHT22;8431;52.458;9.998;2022-09-16T05:19:13;12.00;99.90
16635;DHT22;8431;52.458;9.998;2022-09-16T05:21:40;11.90;99.90
16635;DHT22;8431;52.458;9.998;2022-09-16T05:24:09;11.80;99.90
16635;DHT22;8431;52.458;9.998;2022-09-16T05:26:41;11.80;99.90
16635;DHT22;8431;52.458;9.998;2022-09-16T05:29:11;11.80;99.90
16635;DHT22;8431;52.458;9.998;2022-09-16T05:31:40;11.90;99.90
16635;DHT22;8431;52.458;9.998;2022-09-16T05:34:13;11.90;99.90
16635;DHT22;8431;52.458;9.998;2022-09-16T05:36:41;11.90;99.90
16635;DHT22;8431;52.458;9.998;2022-09-16T05:39:08;11.90;99.90
16635;DHT22;8431;52.458;9.998;2022-09-16T05:41:37;11.70;99.90
16635;DHT22;8431;52.458;9.998;2022-09-16T05:44:04;11.60;99.90
16635;DHT22;8431;52.458;9.998;2022-09-16T05:46:32;11.60;99.90
16635;DHT22;8431;52.458;9.998;2022-09-16T05:49:01;11.50;99.90
16635;DHT22;8431;52.458;9.998;2022-09-16T05:51:30;11.40;99.90
16635;DHT22;8431;52.458;9.998;2022-09-16T05:53:57;11.40;99.90
16635;DHT22;8431;52.458;9.998;2022-09-16T05:56:27;11.40;99.90
16635;DHT22;8431;52.458;9.998;2022-09-16T05:58:56;11.50;99.90
16635;DHT22;8431;52.458;9.998;2022-09-16T06:01:27;11.60;99.90
16635;DHT22;8431;52.458;9.998;2022-09-16T06:03:54;11.80;99.90
16635;DHT22;8431;52.458;9.998;2022-09-16T06:06:23;11.90;99.90
16635;DHT22;8431;52.458;9.998;2022-09-16T06:08:53;11.90;99.90
16635;DHT22;8431;52.458;9.998;2022-09-16T06:11:21;11.90;99.90
16635;DHT22;8431;52.458;9.998;2022-09-16T06:13:52;12.00;99.90
16635;DHT22;8431;52.458;9.998;2022-09-16T06:16:21;11.90;99.90
16635;DHT22;8431;52.458;9.998;2022-09-16T06:18:50;11.90;99.90
16635;DHT22;8431;52.458;9.998;2022-09-16T06:21:19;11.80;99.90
16635;DHT22;8431;52.458;9.998;2022-09-16T06:23:46;11.80;99.90
16635;DHT22;8431;52.458;9.998;2022-09-16T06:26:17;11.70;99.90
16635;DHT22;8431;52.458;9.998;2022-09-16T06:28:44;11.80;99.90
16635;DHT22;8431;52.458;9.998;2022-09-16T06:31:13;11.90;99.90
16635;DHT22;8431;52.458;9.998;2022-09-16T06:33:40;11.90;99.90
16635;DHT22;8431;52.458;9.998;2022-09-16T06:36:09;12.10;99.90
16635;DHT22;8431;52.458;9.998;2022-09-16T06:38:37;12.30;99.90
16635;DHT22;8431;52.458;9.998;2022-09-16T06:41:06;12.50;99.90
16635;DHT22;8431;52.458;9.998;2022-09-16T06:43:36;12.70;99.90
16635;DHT22;8431;52.458;9.998;2022-09-16T06:46:05;12.70;99.90
16635;DHT22;8431;52.458;9.998;2022-09-16T06:48:35;12.40;99.90
16635;DHT22;8431;52.458;9.998;2022-09-16T06:51:03;12.20;99.90
16635;DHT22;8431;52.458;9.998;2022-09-16T06:53:32;12.00;99.90
16635;DHT22;8431;52.458;9.998;2022-09-16T06:56:00;12.00;99.90
16635;DHT22;8431;52.458;9.998;2022-09-16T06:58:27;11.90;99.90
16635;DHT22;8431;52.458;9.998;2022-09-16T07:00:56;12.00;99.90
16635;DHT22;8431;52.458;9.998;2022-09-16T07:03:23;12.00;99.90
16635;DHT22;8431;52.458;9.998;2022-09-16T07:05:57;12.10;99.90
16635;DHT22;8431;52.458;9.998;2022-09-16T07:08:27;12.10;99.90
16635;DHT22;8431;52.458;9.998;2022-09-16T07:10:56;12.20;99.90
16635;DHT22;8431;52.458;9.998;2022-09-16T07:13:23;12.30;99.90
16635;DHT22;8431;52.458;9.998;2022-09-16T07:15:51;12.30;99.90
16635;DHT22;8431;52.458;9.998;2022-09-16T07:18:19;12.40;99.90
16635;DHT22;8431;52.458;9.998;2022-09-16T07:20:50;12.30;99.90
16635;DHT22;8431;52.458;9.998;2022-09-16T07:23:17;12.40;99.90
16635;DHT22;8431;52.458;9.998;2022-09-16T07:25:44;12.50;99.90
16635;DHT22;8431;52.458;9.998;2022-09-16T07:28:11;12.50;99.90
16635;DHT22;8431;52.458;9.998;2022-09-16T07:30:38;12.50;99.90
16635;DHT22;8431;52.458;9.998;2022-09-16T07:33:05;12.60;99.90
16635;DHT22;8431;52.458;9.998;2022-09-16T07:35:34;12.60;99.90
16635;DHT22;8431;52.458;9.998;2022-09-16T07:38:01;12.60;99.90
16635;DHT22;8431;52.458;9.998;2022-09-16T07:40:30;12.70;99.90
16635;DHT22;8431;52.458;9.998;2022-09-16T07:42:57;12.80;99.90
16635;DHT22;8431;52.458;9.998;2022-09-16T07:45:24;12.90;99.90
16635;DHT22;8431;52.458;9.998;2022-09-16T07:47:51;13.00;99.90
16635;DHT22;8431;52.458;9.998;2022-09-16T07:50:18;13.00;99.90
16635;DHT22;8431;52.458;9.998;2022-09-16T07:52:52;13.10;99.90
16635;DHT22;8431;52.458;9.998;2022-09-16T07:55:19;13.10;99.90
16635;DHT22;8431;52.458;9.998;2022-09-16T07:57:46;13.20;99.90
16635;DHT22;8431;52.458;9.998;2022-09-16T08:00:13;13.40;99.90
16635;DHT22;8431;52.458;9.998;2022-09-16T08:02:41;13.40;99.90
16635;DHT22;8431;52.458;9.998;2022-09-16T08:05:08;13.40;99.90
16635;DHT22;8431;52.458;9.998;2022-09-16T08:07:37;13.40;99.90
16635;DHT22;8431;52.458;9.998;2022-09-16T08:10:06;13.40;99.90
16635;DHT22;8431;52.458;9.998;2022-09-16T08:12:33;13.50;99.90
16635;DHT22;8431;52.458;9.998;2022-09-16T08:15:00;13.60;99.90
16635;DHT22;8431;52.458;9.998;2022-09-16T08:17:27;13.70;99.90
16635;DHT22;8431;52.458;9.998;2022-09-16T08:19:54;13.80;99.90
16635;DHT22;8431;52.458;9.998;2022-09-16T08:22:21;13.80;99.90
16635;DHT22;8431;52.458;9.998;2022-09-16T08:24:50;13.80;99.90
16635;DHT22;8431;52.458;9.998;2022-09-16T08:27:18;13.90;99.90
16635;DHT22;8431;52.458;9.998;2022-09-16T08:29:45;13.90;99.90
16635;DHT22;8431;52.458;9.998;2022-09-16T08:32:12;14.10;99.90
16635;DHT22;8431;52.458;9.998;2022-09-16T08:34:39;14.60;99.90
16635;DHT22;8431;52.458;9.998;2022-09-16T08:37:07;15.10;99.90
16635;DHT22;8431;52.458;9.998;2022-09-16T08:39:34;15.20;99.90
16635;DHT22;8431;52.458;9.998;2022-09-16T08:42:19;15.30;99.90
16635;DHT22;8431;52.458;9.998;2022-09-16T08:44:53;15.30;99.90
16635;DHT22;8431;52.458;9.998;2022-09-16T08:47:34;15.10;99.90
16635;DHT22;8431;52.458;9.998;2022-09-16T08:50:14;14.70;99.90
16635;DHT22;8431;52.458;9.998;2022-09-16T08:52:43;14.20;99.90
16635;DHT22;8431;52.458;9.998;2022-09-16T08:55:14;14.00;99.90
16635;DHT22;8431;52.458;9.998;2022-09-16T08:57:58;14.00;99.90
16635;DHT22;8431;52.458;9.998;2022-09-16T09:00:30;14.10;99.90
16635;DHT22;8431;52.458;9.998;2022-09-16T09:03:01;14.10;99.90
16635;DHT22;8431;52.458;9.998;2022-09-16T09:05:39;14.10;99.90
16635;DHT22;8431;52.458;9.998;2022-09-16T09:08:32;14.20;99.90
16635;DHT22;8431;52.458;9.998;2022-09-16T09:11:06;14.40;99.90
16635;DHT22;8431;52.458;9.998;2022-09-16T09:14:00;14.60;99.90
16635;DHT22;8431;52.458;9.998;2022-09-16T09:16:36;14.90;99.90
16635;DHT22;8431;52.458;9.998;2022-09-16T09:19:16;15.00;99.90
16635;DHT22;8431;52.458;9.998;2022-09-16T09:21:57;15.00;99.90
16635;DHT22;8431;52.458;9.998;2022-09-16T09:24:43;15.10;99.90
16635;DHT22;8431;52.458;9.998;2022-09-16T09:27:14;15.60;99.90
16635;DHT22;8431;52.458;9.998;2022-09-16T09:29:58;15.90;99.90
16635;DHT22;8431;52.458;9.998;2022-09-16T09:32:34;15.90;99.90
16635;DHT22;8431;52.458;9.998;2022-09-16T09:35:13;16.10;99.90
16635;DHT22;8431;52.458;9.998;2022-09-16T09:37:56;16.00;99.90
16635;DHT22;8431;52.458;9.998;2022-09-16T09:40:33;16.00;99.90
16635;DHT22;8431;52.458;9.998;2022-09-16T09:43:10;15.70;99.90
16635;DHT22;8431;52.458;9.998;2022-09-16T09:45:44;15.70;99.90
16635;DHT22;8431;52.458;9.998;2022-09-16T09:48:17;15.90;99.90
16635;DHT22;8431;52.458;9.998;2022-09-16T09:50:47;15.70;99.90
16635;DHT22;8431;52.458;9.998;2022-09-16T09:53:18;15.80;99.90
16635;DHT22;8431;52.458;9.998;2022-09-16T09:55:46;15.80;99.90
16635;DHT22;8431;52.458;9.998;2022-09-16T09:58:22;15.50;99.90
16635;DHT22;8431;52.458;9.998;2022-09-16T10:00:52;15.40;99.90
16635;DHT22;8431;52.458;9.998;2022-09-16T10:03:20;15.30;99.90
16635;DHT22;8431;52.458;9.998;2022-09-16T10:05:48;15.30;99.90
16635;DHT22;8431;52.458;9.998;2022-09-16T10:08:22;15.30;99.90
16635;DHT22;8431;52.458;9.998;2022-09-16T10:10:52;15.30;99.90
16635;DHT22;8431;52.458;9.998;2022-09-16T10:13:20;15.30;99.90
16635;DHT22;8431;52.458;9.998;2022-09-16T10:15:49;14.80;99.90
16635;DHT22;8431;52.458;9.998;2022-09-16T10:18:24;14.10;99.90
16635;DHT22;8431;52.458;9.998;2022-09-16T10:21:03;14.30;99.90
16635;DHT22;8431;52.458;9.998;2022-09-16T10:23:30;14.40;99.90
16635;DHT22;8431;52.458;9.998;2022-09-16T10:26:24;14.40;99.90
16635;DHT22;8431;52.458;9.998;2022-09-16T10:28:57;14.50;99.90
16635;DHT22;8431;52.458;9.998;2022-09-16T10:31:27;14.70;99.90
16635;DHT22;8431;52.458;9.998;2022-09-16T10:33:58;14.80;99.90
16635;DHT22;8431;52.458;9.998;2022-09-16T10:36:31;14.70;99.90
16635;DHT22;8431;52.458;9.998;2022-09-16T10:39:00;14.70;99.90
16635;DHT22;8431;52.458;9.998;2022-09-16T10:41:30;14.90;99.90
16635;DHT22;8431;52.458;9.998;2022-09-16T10:43:59;15.30;99.90
16635;DHT22;8431;52.458;9.998;2022-09-16T10:46:28;15.90;99.90
16635;DHT22;8431;52.458;9.998;2022-09-16T10:48:59;16.00;99.90
16635;DHT22;8431;52.458;9.998;2022-09-16T10:51:28;15.80;99.90
16635;DHT22;8431;52.458;9.998;2022-09-16T10:53:57;15.60;99.90
16635;DHT22;8431;52.458;9.998;2022-09-16T10:56:26;15.50;99.90
16635;DHT22;8431;52.458;9.998;2022-09-16T10:59:01;15.50;99.90
16635;DHT22;8431;52.458;9.998;2022-09-16T11:01:41;15.30;99.90
16635;DHT22;8431;52.458;9.998;2022-09-16T11:04:36;14.60;99.90
16635;DHT22;8431;52.458;9.998;2022-09-16T11:07:15;13.20;99.90
16635;DHT22;8431;52.458;9.998;2022-09-16T11:09:51;12.70;99.90
16635;DHT22;8431;52.458;9.998;2022-09-16T11:15:34;13.00;99.90
16635;DHT22;8431;52.458;9.998;2022-09-16T11:21:16;13.30;99.90
16635;DHT22;8431;52.458;9.998;2022-09-16T11:24:09;13.20;99.90
16635;DHT22;8431;52.458;9.998;2022-09-16T11:26:43;13.40;99.90
16635;DHT22;8431;52.458;9.998;2022-09-16T11:29:39;13.80;99.90
16635;DHT22;8431;52.458;9.998;2022-09-16T11:32:14;14.20;99.90
16635;DHT22;8431;52.458;9.998;2022-09-16T11:35:00;14.40;99.90
16635;DHT22;8431;52.458;9.998;2022-09-16T11:37:36;14.50;99.90
16635;DHT22;8431;52.458;9.998;2022-09-16T11:40:17;14.70;99.90
16635;DHT22;8431;52.458;9.998;2022-09-16T11:42:55;14.90;99.90
16635;DHT22;8431;52.458;9.998;2022-09-16T11:45:36;15.10;99.90
16635;DHT22;8431;52.458;9.998;2022-09-16T11:48:29;15.40;99.90
16635;DHT22;8431;52.458;9.998;2022-09-16T11:51:05;15.50;99.90
16635;DHT22;8431;52.458;9.998;2022-09-16T11:53:56;15.80;99.90
16635;DHT22;8431;52.458;9.998;2022-09-16T11:56:32;16.20;99.90
16635;DHT22;8431;52.458;9.998;2022-09-16T11:59:08;16.50;99.90
16635;DHT22;8431;52.458;9.998;2022-09-16T12:01:41;16.60;99.90
16635;DHT22;8431;52.458;9.998;2022-09-16T12:04:11;16.60;99.90
16635;DHT22;8431;52.458;9.998;2022-09-16T12:06:49;16.40;99.90
16635;DHT22;8431;52.458;9.998;2022-09-16T12:09:24;16.30;99.90
16635;DHT22;8431;52.458;9.998;2022-09-16T12:11:55;16.10;99.90
16635;DHT22;8431;52.458;9.998;2022-09-16T12:14:28;15.80;99.90
16635;DHT22;8431;52.458;9.998;2022-09-16T12:17:02;15.80;99.90
16635;DHT22;8431;52.458;9.998;2022-09-16T12:19:36;16.00;99.90
16635;DHT22;8431;52.458;9.998;2022-09-16T12:22:32;16.10;99.90
16635;DHT22;8431;52.458;9.998;2022-09-16T12:25:08;16.10;99.90
16635;DHT22;8431;52.458;9.998;2022-09-16T12:27:45;15.90;99.90
16635;DHT22;8431;52.458;9.998;2022-09-16T12:30:21;16.20;99.90
16635;DHT22;8431;52.458;9.998;2022-09-16T12:33:00;16.30;99.90
16635;DHT22;8431;52.458;9.998;2022-09-16T12:35:37;16.70;99.90
16635;DHT22;8431;52.458;9.998;2022-09-16T12:38:11;17.00;99.90
16635;DHT22;8431;52.458;9.998;2022-09-16T12:40:58;17.20;99.90
16635;DHT22;8431;52.458;9.998;2022-09-16T12:43:50;17.20;99.90
16635;DHT22;8431;52.458;9.998;2022-09-16T12:46:41;16.80;99.90
16635;DHT22;8431;52.458;9.998;2022-09-16T12:49:45;16.20;99.90
16635;DHT22;8431;52.458;9.998;2022-09-16T12:52:43;14.80;99.90
16635;DHT22;8431;52.458;9.998;2022-09-16T12:55:35;14.10;99.90
16635;DHT22;8431;52.458;9.998;2022-09-16T12:58:38;14.00;99.90
16635;DHT22;8431;52.458;9.998;2022-09-16T13:01:19;14.20;99.90
16635;DHT22;8431;52.458;9.998;2022-09-16T13:04:02;14.30;99.90
16635;DHT22;8431;52.458;9.998;2022-09-16T13:06:34;14.40;99.90
16635;DHT22;8431;52.458;9.998;2022-09-16T13:09:27;14.60;99.90
16635;DHT22;8431;52.458;9.998;2022-09-16T13:11:58;14.80;99.90
16635;DHT22;8431;52.458;9.998;2022-09-16T13:14:31;14.90;99.90
16635;DHT22;8431;52.458;9.998;2022-09-16T13:17:00;15.20;99.90
16635;DHT22;8431;52.458;9.998;2022-09-16T13:19:38;15.50;99.90
16635;DHT22;8431;52.458;9.998;2022-09-16T13:22:25;15.30;99.90
16635;DHT22;8431;52.458;9.998;2022-09-16T13:24:59;15.20;99.90
16635;DHT22;8431;52.458;9.998;2022-09-16T13:27:33;15.50;99.90
16635;DHT22;8431;52.458;9.998;2022-09-16T13:30:25;15.70;99.90
16635;DHT22;8431;52.458;9.998;2022-09-16T13:32:59;15.70;99.90
16635;DHT22;8431;52.458;9.998;2022-09-16T13:35:38;15.80;99.90
16635;DHT22;8431;52.458;9.998;2022-09-16T13:38:33;15.80;99.90
16635;DHT22;8431;52.458;9.998;2022-09-16T13:41:03;15.90;99.90
16635;DHT22;8431;52.458;9.998;2022-09-16T13:43:35;16.10;99.90
16635;DHT22;8431;52.458;9.998;2022-09-16T13:46:07;16.30;99.90
16635;DHT22;8431;52.458;9.998;2022-09-16T13:48:41;16.10;99.90
16635;DHT22;8431;52.458;9.998;2022-09-16T13:51:16;15.80;99.90
16635;DHT22;8431;52.458;9.998;2022-09-16T13:53:47;15.80;99.90
16635;DHT22;8431;52.458;9.998;2022-09-16T13:59:22;16.00;99.90
16635;DHT22;8431;52.458;9.998;2022-09-16T14:02:01;16.20;99.90
16635;DHT22;8431;52.458;9.998;2022-09-16T14:04:49;16.30;99.90
16635;DHT22;8431;52.458;9.998;2022-09-16T14:07:33;16.60;99.90
16635;DHT22;8431;52.458;9.998;2022-09-16T14:10:07;16.80;99.90
16635;DHT22;8431;52.458;9.998;2022-09-16T14:12:43;16.70;99.90
16635;DHT22;8431;52.458;9.998;2022-09-16T14:15:12;16.90;99.90
16635;DHT22;8431;52.458;9.998;2022-09-16T14:17:45;17.10;99.90
16635;DHT22;8431;52.458;9.998;2022-09-16T14:20:15;16.90;99.90
16635;DHT22;8431;52.458;9.998;2022-09-16T14:22:43;16.70;99.90
16635;DHT22;8431;52.458;9.998;2022-09-16T14:25:28;16.70;99.90
16635;DHT22;8431;52.458;9.998;2022-09-16T14:28:14;16.60;99.90
16635;DHT22;8431;52.458;9.998;2022-09-16T14:30:47;16.60;99.90
16635;DHT22;8431;52.458;9.998;2022-09-16T14:33:21;16.70;99.90
16635;DHT22;8431;52.458;9.998;2022-09-16T14:35:48;16.40;99.90
16635;DHT22;8431;52.458;9.998;2022-09-16T14:38:18;16.30;99.90
16635;DHT22;8431;52.458;9.998;2022-09-16T14:40:47;16.30;99.90
16635;DHT22;8431;52.458;9.998;2022-09-16T14:43:16;16.20;99.90
16635;DHT22;8431;52.458;9.998;2022-09-16T14:45:47;16.20;99.90
16635;DHT22;8431;52.458;9.998;2022-09-16T14:48:18;16.10;99.90
16635;DHT22;8431;52.458;9.998;2022-09-16T14:50:46;16.10;99.90
16635;DHT22;8431;52.458;9.998;2022-09-16T14:53:24;16.10;99.90
16635;DHT22;8431;52.458;9.998;2022-09-16T14:55:51;16.20;99.90
16635;DHT22;8431;52.458;9.998;2022-09-16T14:58:18;16.20;99.90
16635;DHT22;8431;52.458;9.998;2022-09-16T15:00:49;16.30;99.90
16635;DHT22;8431;52.458;9.998;2022-09-16T15:03:22;16.50;99.90
16635;DHT22;8431;52.458;9.998;2022-09-16T15:05:51;16.70;99.90
16635;DHT22;8431;52.458;9.998;2022-09-16T15:08:23;16.80;99.90
16635;DHT22;8431;52.458;9.998;2022-09-16T15:10:53;16.80;99.90
16635;DHT22;8431;52.458;9.998;2022-09-16T15:13:24;16.60;99.90
16635;DHT22;8431;52.458;9.998;2022-09-16T15:15:54;16.60;99.90
16635;DHT22;8431;52.458;9.998;2022-09-16T15:18:26;16.40;99.90
16635;DHT22;8431;52.458;9.998;2022-09-16T15:21:02;16.40;99.90
16635;DHT22;8431;52.458;9.998;2022-09-16T15:23:31;16.40;99.90
16635;DHT22;8431;52.458;9.998;2022-09-16T15:26:14;16.40;99.90
16635;DHT22;8431;52.458;9.998;2022-09-16T15:28:54;16.40;99.90
16635;DHT22;8431;52.458;9.998;2022-09-16T15:31:33;16.40;99.90
16635;DHT22;8431;52.458;9.998;2022-09-16T15:34:21;16.30;99.90
16635;DHT22;8431;52.458;9.998;2022-09-16T15:36:49;16.20;99.90
16635;DHT22;8431;52.458;9.998;2022-09-16T15:39:22;16.00;99.90
16635;DHT22;8431;52.458;9.998;2022-09-16T15:42:01;15.70;99.90
16635;DHT22;8431;52.458;9.998;2022-09-16T15:44:31;15.50;99.90
16635;DHT22;8431;52.458;9.998;2022-09-16T15:46:58;15.40;99.90
16635;DHT22;8431;52.458;9.998;2022-09-16T15:49:28;15.30;99.90
16635;DHT22;8431;52.458;9.998;2022-09-16T15:52:04;15.30;99.90
16635;DHT22;8431;52.458;9.998;2022-09-16T15:54:35;15.30;99.90
16635;DHT22;8431;52.458;9.998;2022-09-16T15:57:07;15.20;99.90
16635;DHT22;8431;52.458;9.998;2022-09-16T15:59:39;15.20;99.90
16635;DHT22;8431;52.458;9.998;2022-09-16T16:02:21;15.20;99.90
16635;DHT22;8431;52.458;9.998;2022-09-16T16:04:52;15.30;99.90
16635;DHT22;8431;52.458;9.998;2022-09-16T16:07:38;15.20;99.90
16635;DHT22;8431;52.458;9.998;2022-09-16T16:10:16;15.20;99.90
16635;DHT22;8431;52.458;9.998;2022-09-16T16:12:45;15.20;99.90
16635;DHT22;8431;52.458;9.998;2022-09-16T16:15:14;15.10;99.90
16635;DHT22;8431;52.458;9.998;2022-09-16T16:17:44;15.00;99.90
16635;DHT22;8431;52.458;9.998;2022-09-16T16:20:36;14.60;99.90
16635;DHT22;8431;52.458;9.998;2022-09-16T16:23:05;14.20;99.90
16635;DHT22;8431;52.458;9.998;2022-09-16T16:25:34;13.90;99.90
16635;DHT22;8431;52.458;9.998;2022-09-16T16:28:12;13.60;99.90
16635;DHT22;8431;52.458;9.998;2022-09-16T16:30:42;13.60;99.90
16635;DHT22;8431;52.458;9.998;2022-09-16T16:33:12;13.50;99.90
16635;DHT22;8431;52.458;9.998;2022-09-16T16:35:41;13.50;99.90
16635;DHT22;8431;52.458;9.998;2022-09-16T16:38:09;13.50;99.90